createdAt,value
2023-05-04T00:01:37.985Z,102202.78
2023-05-04T00:04:07.313Z,102198.81
2023-05-04T00:06:35.752Z,102188.63
2023-05-04T00:09:04.493Z,102189.28
2023-05-04T00:11:32.673Z,102181.81
2023-05-04T00:14:01.282Z,102179.75
2023-05-04T00:16:30.852Z,102185.03
2023-05-04T00:18:59.063Z,102169.38
2023-05-04T00:21:27.360Z,102168.63
2023-05-04T00:23:55.606Z,102170.88
2023-05-04T00:26:23.937Z,102163.34
2023-05-04T00:28:54.249Z,102172.16
2023-05-04T00:31:22.486Z,102169.78
2023-05-04T00:33:52.046Z,102158.75
2023-05-04T00:36:20.225Z,102156.38
2023-05-04T00:38:50.238Z,102157.53
2023-05-04T00:41:19.151Z,102155.91
2023-05-04T00:43:48.174Z,102167.09
2023-05-04T00:46:16.987Z,102151.47
2023-05-04T00:48:47.990Z,102153.72
2023-05-04T00:51:21.118Z,102154.03
2023-05-04T00:53:50.694Z,102149.41
2023-05-04T00:56:21.561Z,102143.19
2023-05-04T00:58:51.888Z,102145.09
2023-05-04T01:01:20.161Z,102129.97
2023-05-04T01:03:48.811Z,102130.28
2023-05-04T01:06:28.312Z,102140.34
2023-05-04T01:09:04.239Z,102127.91
2023-05-04T01:11:41.911Z,102124.41
2023-05-04T01:14:14.661Z,102127.78
2023-05-04T01:16:43.022Z,102118.34
2023-05-04T01:19:11.264Z,102109.41
2023-05-04T01:21:40.966Z,102110.53
2023-05-04T01:24:09.302Z,102115.97
2023-05-04T01:26:43.591Z,102107.06
2023-05-04T01:29:19.216Z,102108.97
2023-05-04T01:31:48.502Z,102098.47
2023-05-04T01:34:18.488Z,102103.88
2023-05-04T01:36:49.039Z,102104.50
2023-05-04T01:39:17.307Z,102105.63
2023-05-04T01:41:45.506Z,102113.31
2023-05-04T01:44:13.725Z,102110.94
2023-05-04T01:46:41.930Z,102109.31
2023-05-04T01:49:10.289Z,102112.34
2023-05-04T01:51:38.442Z,102110.75
2023-05-04T01:54:07.994Z,102108.41
2023-05-04T01:56:36.544Z,102109.16
2023-05-04T01:59:04.746Z,102109.81
2023-05-04T02:01:33.020Z,102109.81
2023-05-04T02:04:01.280Z,102108.56
2023-05-04T02:06:29.629Z,102115.88
2023-05-04T02:08:57.804Z,102105.38
2023-05-04T02:11:27.474Z,102104.09
2023-05-04T02:13:55.703Z,102106.34
2023-05-04T02:16:23.928Z,102109.66
2023-05-04T02:18:52.272Z,102103.03
2023-05-04T02:21:20.750Z,102108.75
2023-05-04T02:23:48.901Z,102106.06
2023-05-04T02:26:17.109Z,102101.25
2023-05-04T02:28:46.633Z,102098.09
2023-05-04T02:31:16.199Z,102093.34
2023-05-04T02:33:44.385Z,102092.84
2023-05-04T02:36:12.545Z,102095.06
2023-05-04T02:38:41.276Z,102094.63
2023-05-04T02:41:09.500Z,102091.41
2023-05-04T02:43:37.756Z,102086.78
2023-05-04T02:46:07.490Z,102085.22
2023-05-04T02:48:35.761Z,102080.13
2023-05-04T02:51:04.587Z,102079.69
2023-05-04T02:53:32.784Z,102081.09
2023-05-04T02:56:00.951Z,102079.03
2023-05-04T02:58:29.191Z,102073.94
2023-05-04T03:00:57.507Z,102069.97
2023-05-04T03:03:27.402Z,102075.22
2023-05-04T03:05:55.629Z,102079.00
2023-05-04T03:08:23.899Z,102080.94
2023-05-04T03:10:52.081Z,102072.38
2023-05-04T03:13:20.296Z,102075.38
2023-05-04T03:15:48.487Z,102067.59
2023-05-04T03:18:16.690Z,102067.88
2023-05-04T03:20:46.265Z,102069.78
2023-05-04T03:23:14.486Z,102078.22
2023-05-04T03:25:42.675Z,102068.53
2023-05-04T03:28:10.888Z,102073.94
2023-05-04T03:30:39.108Z,102072.38
2023-05-04T03:33:07.475Z,102070.75
2023-05-04T03:35:35.859Z,102073.00
2023-05-04T03:38:06.603Z,102063.59
2023-05-04T03:40:34.906Z,102072.50
2023-05-04T03:43:03.171Z,102065.03
2023-05-04T03:45:31.424Z,102071.09
2023-05-04T03:47:59.890Z,102072.22
2023-05-04T03:50:28.104Z,102065.50
2023-05-04T03:52:56.288Z,102065.50
2023-05-04T03:55:25.858Z,102078.22
2023-05-04T03:57:54.019Z,102070.00
2023-05-04T04:00:22.362Z,102072.19
2023-05-04T04:02:50.884Z,102068.22
2023-05-04T04:05:19.291Z,102073.63
2023-05-04T04:07:47.486Z,102066.97
2023-05-04T04:10:15.703Z,102061.84
2023-05-04T04:12:45.316Z,102063.28
2023-05-04T04:15:14.018Z,102074.09
2023-05-04T04:17:42.234Z,102058.50
2023-05-04T04:20:13.004Z,102057.25
2023-05-04T04:22:41.203Z,102066.47
2023-05-04T04:25:10.448Z,102053.28
2023-05-04T04:27:38.717Z,102050.56
2023-05-04T04:30:10.081Z,102064.38
2023-05-04T04:32:38.561Z,102060.13
2023-05-04T04:35:08.423Z,102047.34
2023-05-04T04:37:36.690Z,102045.94
2023-05-04T04:40:07.744Z,102043.25
2023-05-04T04:42:36.145Z,102051.84
2023-05-04T04:45:05.942Z,102040.22
2023-05-04T04:47:36.111Z,102045.31
2023-05-04T04:50:05.534Z,102051.69
2023-05-04T04:52:34.770Z,102042.44
2023-05-04T04:55:03.011Z,102038.00
2023-05-04T04:57:31.925Z,102044.34
2023-05-04T05:00:00.882Z,102047.72
2023-05-04T05:02:29.269Z,102041.34
2023-05-04T05:04:58.947Z,102039.72
2023-05-04T05:07:27.302Z,102041.94
2023-05-04T05:09:55.598Z,102039.88
2023-05-04T05:12:23.858Z,102034.28
2023-05-04T05:14:52.174Z,102041.44
2023-05-04T05:17:21.336Z,102040.97
2023-05-04T05:19:50.088Z,102027.56
2023-05-04T05:22:19.695Z,102035.84
2023-05-04T05:24:47.915Z,102041.06
2023-05-04T05:27:16.524Z,102038.97
2023-05-04T05:29:45.046Z,102038.81
2023-05-04T05:32:13.236Z,102038.16
2023-05-04T05:34:42.452Z,102045.31
2023-05-04T05:37:11.068Z,102051.34
2023-05-04T05:39:40.741Z,102047.66
2023-05-04T05:42:09.157Z,102044.28
2023-05-04T05:44:37.675Z,102053.03
2023-05-04T05:47:05.974Z,102050.16
2023-05-04T05:49:35.051Z,102044.22
2023-05-04T05:52:03.231Z,102049.78
2023-05-04T05:54:32.035Z,102036.72
2023-05-04T05:57:01.801Z,102045.44
2023-05-04T05:59:30.060Z,102047.63
2023-05-04T06:01:58.234Z,102047.47
2023-05-04T06:04:26.580Z,102041.03
2023-05-04T06:06:54.783Z,102034.59
2023-05-04T06:09:23.022Z,102029.94
2023-05-04T06:11:52.418Z,102039.47
2023-05-04T06:14:22.911Z,102033.19
2023-05-04T06:16:51.155Z,102035.69
2023-05-04T06:19:19.978Z,102023.53
2023-05-04T06:21:50.433Z,102023.78
2023-05-04T06:24:18.639Z,102015.53
2023-05-04T06:26:46.904Z,102021.72
2023-05-04T06:29:15.402Z,102015.72
2023-05-04T06:31:48.190Z,102019.38
2023-05-04T06:34:18.006Z,102018.03
2023-05-04T06:36:46.870Z,102011.91
2023-05-04T06:39:15.165Z,102011.50
2023-05-04T06:41:43.370Z,102006.41
2023-05-04T06:44:11.704Z,102002.91
2023-05-04T06:46:39.917Z,101999.28
2023-05-04T06:49:09.485Z,101995.03
2023-05-04T06:51:39.013Z,101998.38
2023-05-04T06:54:07.324Z,101997.81
2023-05-04T06:56:35.562Z,101991.00
2023-05-04T06:59:03.783Z,101991.16
2023-05-04T07:01:32.003Z,101989.84
2023-05-04T07:04:00.415Z,101987.03
2023-05-04T07:06:30.738Z,101984.94
2023-05-04T07:08:58.983Z,101995.22
2023-05-04T07:11:27.974Z,101993.50
2023-05-04T07:13:56.348Z,101991.03
2023-05-04T07:16:24.552Z,101982.78
2023-05-04T07:18:52.912Z,101984.78
2023-05-04T07:21:28.501Z,101986.84
2023-05-04T07:23:58.779Z,101986.41
2023-05-04T07:26:27.077Z,101985.44
2023-05-04T07:28:55.293Z,101975.06
2023-05-04T07:31:23.537Z,101976.84
2023-05-04T07:33:52.006Z,101975.34
2023-05-04T07:36:20.619Z,101973.59
2023-05-04T07:38:49.110Z,101971.13
2023-05-04T07:41:18.646Z,101963.28
2023-05-04T07:43:46.858Z,101961.56
2023-05-04T07:46:15.308Z,101953.53
2023-05-04T07:48:43.548Z,101961.16
2023-05-04T07:51:15.124Z,101956.28
2023-05-04T07:53:43.619Z,101956.00
2023-05-04T07:56:13.247Z,101959.69
2023-05-04T07:58:43.051Z,101950.94
2023-05-04T08:01:11.373Z,101954.69
2023-05-04T08:03:39.585Z,101946.41
2023-05-04T08:06:09.546Z,101943.97
2023-05-04T08:08:37.838Z,101953.91
2023-05-04T08:11:19.151Z,101942.75
2023-05-04T08:13:51.703Z,101944.22
2023-05-04T08:16:19.931Z,101940.38
2023-05-04T08:18:48.141Z,101937.41
2023-05-04T08:21:16.390Z,101942.28
2023-05-04T08:23:44.624Z,101938.94
2023-05-04T08:26:12.917Z,101934.78
2023-05-04T08:28:41.700Z,101933.78
2023-05-04T08:31:11.338Z,101935.06
2023-05-04T08:33:39.752Z,101924.28
2023-05-04T08:36:09.929Z,101934.91
2023-05-04T08:38:38.282Z,101933.44
2023-05-04T08:41:07.428Z,101935.53
2023-05-04T08:43:37.180Z,101929.78
2023-05-04T08:46:05.842Z,101923.63
2023-05-04T08:48:35.665Z,101938.09
2023-05-04T08:51:05.276Z,101925.53
2023-05-04T08:53:36.868Z,101926.84
2023-05-04T08:56:09.524Z,101915.56
2023-05-04T08:58:39.339Z,101915.31
2023-05-04T09:01:09.337Z,101914.25
2023-05-04T09:03:39.132Z,101901.44
2023-05-04T09:06:09.413Z,101918.41
2023-05-04T09:08:37.763Z,101911.84
2023-05-04T09:11:06.267Z,101916.59
2023-05-04T09:13:35.473Z,101904.47
2023-05-04T09:16:04.953Z,101892.38
2023-05-04T09:18:43.607Z,101898.69
2023-05-04T09:21:12.700Z,101893.28
2023-05-04T09:23:48.441Z,101898.13
2023-05-04T09:26:27.746Z,101882.91
2023-05-04T09:28:56.107Z,101897.81
2023-05-04T09:31:25.151Z,101891.97
2023-05-04T09:33:55.346Z,101896.31
2023-05-04T09:36:25.109Z,101881.88
2023-05-04T09:38:53.376Z,101888.56
2023-05-04T09:41:34.366Z,101889.34
2023-05-04T09:44:03.430Z,101883.84
2023-05-04T09:46:31.962Z,101884.25
2023-05-04T09:49:01.859Z,101891.31
2023-05-04T09:51:29.996Z,101875.22
2023-05-04T09:54:02.682Z,101872.84
2023-05-04T09:56:39.979Z,101874.41
2023-05-04T09:59:09.313Z,101875.16
2023-05-04T10:01:37.927Z,101870.44
2023-05-04T10:04:07.987Z,101864.91
2023-05-04T10:06:36.321Z,101866.44
2023-05-04T10:09:05.045Z,101847.59
2023-05-04T10:11:33.924Z,101845.19
2023-05-04T10:14:02.138Z,101835.69
2023-05-04T10:16:42.002Z,101839.63
2023-05-04T10:19:30.493Z,101830.16
2023-05-04T10:22:14.833Z,101819.91
2023-05-04T10:25:07.505Z,101816.69
2023-05-04T10:27:48.058Z,101816.88
2023-05-04T10:30:18.526Z,101811.94
2023-05-04T10:32:47.013Z,101815.22
2023-05-04T10:35:19.736Z,101815.94
2023-05-04T10:37:54.478Z,101803.28
2023-05-04T10:40:36.200Z,101811.94
2023-05-04T10:43:04.904Z,101800.88
2023-05-04T10:45:38.341Z,101798.84
2023-05-04T10:48:07.909Z,101796.78
2023-05-04T10:50:49.447Z,101783.66
2023-05-04T10:53:19.872Z,101772.69
2023-05-04T10:55:49.342Z,101793.41
2023-05-04T10:58:20.202Z,101768.22
2023-05-04T11:00:51.560Z,101765.06
2023-05-04T11:03:22.249Z,101761.75
2023-05-04T11:05:54.719Z,101766.41
2023-05-04T11:08:25.338Z,101745.84
2023-05-04T11:11:03.793Z,101738.78
2023-05-04T11:13:33.707Z,101741.16
2023-05-04T11:16:02.489Z,101734.81
2023-05-04T11:18:32.539Z,101725.00
2023-05-04T11:21:03.558Z,101728.41
2023-05-04T11:23:32.678Z,101711.59
2023-05-04T11:26:09.234Z,101708.09
2023-05-04T11:28:39.604Z,101714.41
2023-05-04T11:31:14.792Z,101701.94
2023-05-04T11:33:48.124Z,101694.63
2023-05-04T11:36:18.444Z,101698.78
2023-05-04T11:38:46.971Z,101702.63
2023-05-04T11:41:15.533Z,101683.78
2023-05-04T11:43:46.517Z,101696.00
2023-05-04T11:46:16.429Z,101685.63
2023-05-04T11:48:45.078Z,101696.16
2023-05-04T11:51:13.391Z,101680.22
2023-05-04T11:53:43.224Z,101692.09
2023-05-04T11:56:11.531Z,101674.69
2023-05-04T11:58:39.793Z,101662.38
2023-05-04T12:01:07.964Z,101669.94
2023-05-04T12:03:52.985Z,101680.53
2023-05-04T12:06:33.151Z,101651.66
2023-05-04T12:09:06.902Z,101688.25
2023-05-04T12:11:38.208Z,101666.81
2023-05-04T12:14:09.550Z,101656.69
2023-05-04T12:16:38.676Z,101657.59
2023-05-04T12:19:10.993Z,101648.91
2023-05-04T12:21:51.610Z,101643.91
2023-05-04T12:24:23.618Z,101654.09
2023-05-04T12:26:52.078Z,101646.97
2023-05-04T12:29:20.388Z,101654.47
2023-05-04T12:31:48.842Z,101642.22
2023-05-04T12:34:17.154Z,101629.56
2023-05-04T12:36:45.470Z,101631.84
2023-05-04T12:39:14.872Z,101626.31
2023-05-04T12:41:44.503Z,101618.34
2023-05-04T12:44:14.281Z,101614.22
2023-05-04T12:46:43.133Z,101609.81
2023-05-04T12:49:11.410Z,101605.69
2023-05-04T12:51:39.716Z,101603.72
2023-05-04T12:54:08.213Z,101603.88
2023-05-04T12:56:37.312Z,101596.53
2023-05-04T12:59:07.474Z,101607.66
2023-05-04T13:01:35.723Z,101593.41
2023-05-04T13:04:04.036Z,101596.97
2023-05-04T13:06:32.273Z,101601.59
2023-05-04T13:09:01.693Z,101595.22
2023-05-04T13:11:29.897Z,101596.44
2023-05-04T13:13:58.104Z,101570.00
2023-05-04T13:16:28.316Z,101572.44
2023-05-04T13:18:56.878Z,101556.69
2023-05-04T13:21:25.125Z,101557.41
2023-05-04T13:23:53.359Z,101551.88
2023-05-04T13:26:21.805Z,101537.72
2023-05-04T13:28:51.549Z,101534.97
2023-05-04T13:31:19.803Z,101544.81
2023-05-04T13:33:50.531Z,101531.31
2023-05-04T13:36:21.762Z,101530.91
2023-05-04T13:38:49.931Z,101528.13
2023-05-04T13:41:18.560Z,101531.31
2023-05-04T13:43:46.772Z,101523.03
2023-05-04T13:46:15.018Z,101523.03
2023-05-04T13:48:43.268Z,101515.53
2023-05-04T13:51:12.818Z,101512.34
2023-05-04T13:53:41.028Z,101503.19
2023-05-04T13:56:09.530Z,101498.88
2023-05-04T13:58:37.788Z,101491.44
2023-05-04T14:01:06.512Z,101479.72
2023-05-04T14:03:34.776Z,101476.94
2023-05-04T14:06:03.265Z,101467.44
2023-05-04T14:08:32.895Z,101474.84
2023-05-04T14:11:01.102Z,101471.31
2023-05-04T14:13:29.345Z,101457.06
2023-05-04T14:15:58.342Z,101459.41
2023-05-04T14:18:27.918Z,101448.25
2023-05-04T14:20:56.097Z,101441.88
2023-05-04T14:23:24.340Z,101439.44
2023-05-04T14:25:56.987Z,101435.84
2023-05-04T14:28:26.125Z,101436.94
2023-05-04T14:30:54.349Z,101428.22
2023-05-04T14:33:22.583Z,101432.19
2023-05-04T14:35:50.902Z,101428.72
2023-05-04T14:38:19.123Z,101414.22
2023-05-04T14:40:49.559Z,101428.41
2023-05-04T14:43:19.465Z,101409.16
2023-05-04T14:45:47.852Z,101418.97
2023-05-04T14:48:17.488Z,101416.75
2023-05-04T14:50:45.740Z,101418.19
2023-05-04T14:53:13.953Z,101422.28
2023-05-04T14:55:42.664Z,101412.63
2023-05-04T14:58:10.883Z,101403.31
2023-05-04T15:00:40.554Z,101402.59
2023-05-04T15:03:09.854Z,101410.91
2023-05-04T15:05:38.316Z,101399.50
2023-05-04T15:08:06.998Z,101395.97
2023-05-04T15:10:35.346Z,101394.44
2023-05-04T15:13:03.663Z,101403.13
2023-05-04T15:15:31.889Z,101406.66
2023-05-04T15:18:01.468Z,101394.94
2023-05-04T15:20:30.013Z,101395.59
2023-05-04T15:22:59.947Z,101402.34
2023-05-04T15:25:28.101Z,101405.19
2023-05-04T15:27:56.261Z,101410.72
2023-05-04T15:30:24.543Z,101413.91
2023-05-04T15:32:53.037Z,101400.63
2023-05-04T15:35:23.038Z,101401.50
2023-05-04T15:37:51.621Z,101391.66
2023-05-04T15:40:19.840Z,101383.78
2023-05-04T15:42:48.087Z,101384.56
2023-05-04T15:45:16.578Z,101391.31
2023-05-04T15:47:45.239Z,101380.28
2023-05-04T15:50:13.854Z,101373.88
2023-05-04T15:52:43.504Z,101368.00
2023-05-04T15:55:24.776Z,101368.00
2023-05-04T15:57:54.225Z,101364.81
2023-05-04T16:00:23.551Z,101359.38
2023-05-04T16:02:51.901Z,101361.78
2023-05-04T16:05:20.646Z,101362.66
2023-05-04T16:07:50.258Z,101354.03
2023-05-04T16:10:19.083Z,101356.44
2023-05-04T16:12:47.562Z,101355.72
2023-05-04T16:15:16.213Z,101344.88
2023-05-04T16:17:44.548Z,101350.13
2023-05-04T16:20:13.168Z,101345.13
2023-05-04T16:22:41.974Z,101338.50
2023-05-04T16:25:11.948Z,101340.56
2023-05-04T16:27:40.660Z,101338.66
2023-05-04T16:30:11.088Z,101342.69
2023-05-04T16:32:39.431Z,101338.47
2023-05-04T16:35:09.223Z,101341.59
2023-05-04T16:37:38.642Z,101330.03
2023-05-04T16:40:14.161Z,101331.59
2023-05-04T16:42:42.706Z,101338.31
2023-05-04T16:45:13.491Z,101317.88
2023-05-04T16:47:42.277Z,101335.38
2023-05-04T16:50:12.167Z,101333.47
2023-05-04T16:52:40.859Z,101329.16
2023-05-04T16:55:12.445Z,101321.75
2023-05-04T16:57:41.385Z,101321.38
2023-05-04T17:00:13.273Z,101321.38
2023-05-04T17:02:41.602Z,101315.88
2023-05-04T17:05:11.348Z,101315.38
2023-05-04T17:07:40.078Z,101305.63
2023-05-04T17:10:11.568Z,101316.31
2023-05-04T17:12:40.000Z,101321.06
2023-05-04T17:15:10.168Z,101315.88
2023-05-04T17:17:38.475Z,101316.66
2023-05-04T17:20:14.379Z,101318.63
2023-05-04T17:22:43.162Z,101322.59
2023-05-04T17:25:13.579Z,101318.22
2023-05-04T17:27:43.752Z,101317.44
2023-05-04T17:30:13.879Z,101310.72
2023-05-04T17:32:42.243Z,101312.41
2023-05-04T17:35:21.030Z,101317.59
2023-05-04T17:37:56.138Z,101316.09
2023-05-04T17:40:28.664Z,101311.00
2023-05-04T17:42:57.271Z,101318.56
2023-05-04T17:45:25.573Z,101320.66
2023-05-04T17:47:54.129Z,101317.97
2023-05-04T17:50:22.730Z,101310.56
2023-05-04T17:52:55.302Z,101308.66
2023-05-04T17:55:24.725Z,101316.50
2023-05-04T17:57:55.560Z,101318.91
2023-05-04T18:00:23.946Z,101314.25
2023-05-04T18:02:52.218Z,101311.97
2023-05-04T18:05:20.658Z,101310.16
2023-05-04T18:07:49.009Z,101303.16
2023-05-04T18:10:17.298Z,101298.13
2023-05-04T18:12:45.633Z,101308.09
2023-05-04T18:15:16.415Z,101303.06
2023-05-04T18:17:44.688Z,101308.25
2023-05-04T18:20:13.708Z,101313.41
2023-05-04T18:22:42.217Z,101312.69
2023-05-04T18:25:11.602Z,101315.94
2023-05-04T18:27:39.948Z,101326.28
2023-05-04T18:30:10.524Z,101322.78
2023-05-04T18:32:40.186Z,101325.63
2023-05-04T18:35:09.190Z,101329.63
2023-05-04T18:37:37.516Z,101330.44
2023-05-04T18:40:08.297Z,101324.22
2023-05-04T18:42:36.999Z,101335.66
2023-05-04T18:45:07.038Z,101345.56
2023-05-04T18:47:35.416Z,101334.19
2023-05-04T18:50:05.885Z,101334.56
2023-05-04T18:52:34.584Z,101334.66
2023-05-04T18:55:03.227Z,101333.16
2023-05-04T18:57:31.626Z,101337.94
2023-05-04T18:59:59.924Z,101324.25
2023-05-04T19:02:30.022Z,101335.75
2023-05-04T19:04:58.405Z,101337.00
2023-05-04T19:07:28.205Z,101345.31
2023-05-04T19:09:56.475Z,101345.78
2023-05-04T19:12:28.101Z,101349.38
2023-05-04T19:14:56.367Z,101337.28
2023-05-04T19:17:24.876Z,101345.56
2023-05-04T19:19:53.211Z,101333.06
2023-05-04T19:22:21.449Z,101341.78
2023-05-04T19:24:52.563Z,101343.81
2023-05-04T19:27:20.835Z,101347.78
2023-05-04T19:29:49.128Z,101347.88
2023-05-04T19:32:24.427Z,101349.53
2023-05-04T19:34:53.602Z,101348.34
2023-05-04T19:37:22.025Z,101350.81
2023-05-04T19:39:52.087Z,101350.09
2023-05-04T19:42:20.355Z,101349.69
2023-05-04T19:44:48.636Z,101345.03
2023-05-04T19:47:17.038Z,101347.03
2023-05-04T19:49:48.505Z,101350.63
2023-05-04T19:52:17.000Z,101349.91
2023-05-04T19:54:48.569Z,101346.78
2023-05-04T19:57:18.382Z,101346.81
2023-05-04T19:59:47.374Z,101344.13
2023-05-04T20:02:16.106Z,101343.72
2023-05-04T20:04:44.379Z,101341.81
2023-05-04T20:07:12.556Z,101347.75
2023-05-04T20:09:40.937Z,101351.34
2023-05-04T20:12:09.283Z,101341.91
2023-05-04T20:14:40.917Z,101351.38
2023-05-04T20:17:09.280Z,101353.75
2023-05-04T20:19:40.599Z,101349.84
2023-05-04T20:22:08.865Z,101348.72
2023-05-04T20:24:37.235Z,101351.53
2023-05-04T20:27:05.626Z,101341.75
2023-05-04T20:29:34.781Z,101342.59
2023-05-04T20:32:05.200Z,101340.63
2023-05-04T20:34:33.753Z,101349.31
2023-05-04T20:37:02.011Z,101343.84
2023-05-04T20:39:30.496Z,101342.28
2023-05-04T20:41:59.090Z,101340.72
2023-05-04T20:44:27.819Z,101332.88
2023-05-04T20:46:56.302Z,101338.38
2023-05-04T20:49:25.940Z,101334.88
2023-05-04T20:51:54.194Z,101326.63
2023-05-04T20:54:22.857Z,101335.28
2023-05-04T20:56:51.125Z,101332.13
2023-05-04T20:59:19.320Z,101327.06
2023-05-04T21:01:47.657Z,101323.53
2023-05-04T21:04:15.953Z,101322.00
2023-05-04T21:06:47.472Z,101328.69
2023-05-04T21:09:16.676Z,101325.19
2023-05-04T21:11:44.895Z,101333.06
2023-05-04T21:14:13.130Z,101320.53
2023-05-04T21:16:41.357Z,101325.25
2023-05-04T21:19:09.706Z,101323.69
2023-05-04T21:21:40.959Z,101323.75
2023-05-04T21:24:14.106Z,101317.50
2023-05-04T21:26:42.536Z,101315.16
2023-05-04T21:29:13.998Z,101324.97
2023-05-04T21:31:42.405Z,101314.41
2023-05-04T21:34:10.723Z,101308.53
2023-05-04T21:36:40.327Z,101316.38
2023-05-04T21:39:09.273Z,101310.91
2023-05-04T21:41:39.718Z,101314.03
2023-05-04T21:44:07.959Z,101319.13
2023-05-04T21:46:36.346Z,101310.91
2023-05-04T21:49:04.639Z,101306.59
2023-05-04T21:51:32.919Z,101307.44
2023-05-04T21:54:02.082Z,101299.97
2023-05-04T21:56:30.487Z,101301.19
2023-05-04T21:59:00.118Z,101315.31
2023-05-04T22:01:28.585Z,101299.22
2023-05-04T22:03:56.955Z,101304.34
2023-05-04T22:06:25.880Z,101303.56
2023-05-04T22:08:54.132Z,101313.75
2023-05-04T22:11:22.436Z,101317.69
2023-05-04T22:13:50.626Z,101320.03
2023-05-04T22:16:20.673Z,101318.47
2023-05-04T22:18:49.564Z,101323.97
2023-05-04T22:21:17.969Z,101325.56
2023-05-04T22:23:46.159Z,101320.06
2023-05-04T22:26:14.423Z,101317.69
2023-05-04T22:28:42.609Z,101309.84
2023-05-04T22:31:10.835Z,101307.47
2023-05-04T22:33:40.424Z,101301.59
2023-05-04T22:36:09.320Z,101313.34
2023-05-04T22:38:37.759Z,101309.84
2023-05-04T22:41:06.851Z,101329.44
2023-05-04T22:43:35.075Z,101323.59
2023-05-04T22:46:03.318Z,101312.63
2023-05-04T22:48:32.508Z,101313.81
2023-05-04T22:51:02.177Z,101310.66
2023-05-04T22:53:30.370Z,101317.69
2023-05-04T22:55:58.588Z,101322.81
2023-05-04T22:58:27.016Z,101326.34
2023-05-04T23:00:55.202Z,101323.25
2023-05-04T23:03:23.843Z,101323.25
2023-05-04T23:05:53.930Z,101325.22
2023-05-04T23:08:23.850Z,101334.63
2023-05-04T23:10:52.061Z,101335.84
2023-05-04T23:13:20.391Z,101338.22
2023-05-04T23:15:48.746Z,101341.41
2023-05-04T23:18:17.051Z,101348.50
2023-05-04T23:20:45.379Z,101343.78
2023-05-04T23:23:13.603Z,101351.66
2023-05-04T23:25:43.225Z,101351.66
2023-05-04T23:28:11.919Z,101354.03
2023-05-04T23:30:40.116Z,101354.47
2023-05-04T23:33:08.383Z,101354.09
2023-05-04T23:35:36.692Z,101355.69
2023-05-04T23:38:05.170Z,101347.13
2023-05-04T23:40:33.417Z,101351.44
2023-05-04T23:43:03.234Z,101350.69
2023-05-04T23:45:31.481Z,101343.66
2023-05-04T23:47:59.735Z,101353.44
2023-05-04T23:50:27.928Z,101344.47
2023-05-04T23:52:56.081Z,101335.47
2023-05-04T23:55:24.558Z,101349.22
2023-05-04T23:57:53.010Z,101361.34
